sensor_id;sensor_type;location;lat;lon;timestamp;P1;durP1;ratioP1;P2;durP2;ratioP2
23586;SDS011;11971;51.148;4.104;2022-07-30T00:01:21;17.52;;;9.68;;
23586;SDS011;11971;51.148;4.104;2022-07-30T00:03:48;8.88;;;6.05;;
23586;SDS011;11971;51.148;4.104;2022-07-30T00:06:16;8.90;;;6.72;;
23586;SDS011;11971;51.148;4.104;2022-07-30T00:08:44;13.18;;;8.13;;
23586;SDS011;11971;51.148;4.104;2022-07-30T00:11:11;14.63;;;8.93;;
23586;SDS011;11971;51.148;4.104;2022-07-30T00:13:39;17.23;;;10.52;;
23586;SDS011;11971;51.148;4.104;2022-07-30T00:16:06;15.50;;;10.43;;
23586;SDS011;11971;51.148;4.104;2022-07-30T00:18:35;16.02;;;10.00;;
23586;SDS011;11971;51.148;4.104;2022-07-30T00:21:02;12.40;;;8.25;;
23586;SDS011;11971;51.148;4.104;2022-07-30T00:23:30;10.57;;;8.35;;
23586;SDS011;11971;51.148;4.104;2022-07-30T00:25:57;12.63;;;8.35;;
23586;SDS011;11971;51.148;4.104;2022-07-30T00:28:25;8.95;;;7.50;;
23586;SDS011;11971;51.148;4.104;2022-07-30T00:30:52;16.80;;;9.32;;
23586;SDS011;11971;51.148;4.104;2022-07-30T00:33:19;12.48;;;9.05;;
23586;SDS011;11971;51.148;4.104;2022-07-30T00:35:48;16.33;;;10.13;;
23586;SDS011;11971;51.148;4.104;2022-07-30T00:38:15;15.27;;;10.40;;
23586;SDS011;11971;51.148;4.104;2022-07-30T00:40:42;18.17;;;10.48;;
23586;SDS011;11971;51.148;4.104;2022-07-30T00:45:39;14.75;;;10.25;;
23586;SDS011;11971;51.148;4.104;2022-07-30T00:48:06;17.23;;;10.30;;
23586;SDS011;11971;51.148;4.104;2022-07-30T00:50:33;20.55;;;10.60;;
23586;SDS011;11971;51.148;4.104;2022-07-30T00:53:02;14.93;;;9.55;;
23586;SDS011;11971;51.148;4.104;2022-07-30T00:55:29;10.57;;;7.95;;
23586;SDS011;11971;51.148;4.104;2022-07-30T00:57:56;23.38;;;12.82;;
23586;SDS011;11971;51.148;4.104;2022-07-30T01:00:24;18.05;;;11.35;;
23586;SDS011;11971;51.148;4.104;2022-07-30T01:02:51;20.77;;;13.75;;
23586;SDS011;11971;51.148;4.104;2022-07-30T01:05:18;22.13;;;14.38;;
23586;SDS011;11971;51.148;4.104;2022-07-30T01:07:46;22.25;;;13.80;;
23586;SDS011;11971;51.148;4.104;2022-07-30T01:10:15;19.98;;;13.63;;
23586;SDS011;11971;51.148;4.104;2022-07-30T01:12:42;17.67;;;12.20;;
23586;SDS011;11971;51.148;4.104;2022-07-30T01:15:10;25.45;;;14.00;;
23586;SDS011;11971;51.148;4.104;2022-07-30T01:17:37;22.60;;;13.52;;
23586;SDS011;11971;51.148;4.104;2022-07-30T01:20:05;20.73;;;12.50;;
23586;SDS011;11971;51.148;4.104;2022-07-30T01:22:34;15.63;;;8.50;;
23586;SDS011;11971;51.148;4.104;2022-07-30T01:25:04;16.58;;;10.07;;
23586;SDS011;11971;51.148;4.104;2022-07-30T01:27:37;24.13;;;13.88;;
23586;SDS011;11971;51.148;4.104;2022-07-30T01:30:06;26.58;;;16.00;;
23586;SDS011;11971;51.148;4.104;2022-07-30T01:32:35;32.92;;;19.35;;
23586;SDS011;11971;51.148;4.104;2022-07-30T01:35:03;31.08;;;19.08;;
23586;SDS011;11971;51.148;4.104;2022-07-30T01:37:32;38.30;;;21.23;;
23586;SDS011;11971;51.148;4.104;2022-07-30T01:40:00;35.65;;;20.52;;
23586;SDS011;11971;51.148;4.104;2022-07-30T01:42:28;32.83;;;20.42;;
23586;SDS011;11971;51.148;4.104;2022-07-30T01:44:58;33.67;;;20.65;;
23586;SDS011;11971;51.148;4.104;2022-07-30T01:49:52;34.60;;;18.13;;
23586;SDS011;11971;51.148;4.104;2022-07-30T01:52:20;36.53;;;19.75;;
23586;SDS011;11971;51.148;4.104;2022-07-30T01:54:50;33.08;;;18.92;;
23586;SDS011;11971;51.148;4.104;2022-07-30T01:57:18;30.02;;;18.02;;
23586;SDS011;11971;51.148;4.104;2022-07-30T01:59:46;29.83;;;19.00;;
23586;SDS011;11971;51.148;4.104;2022-07-30T02:02:17;27.92;;;17.98;;
23586;SDS011;11971;51.148;4.104;2022-07-30T02:04:44;26.65;;;18.17;;
23586;SDS011;11971;51.148;4.104;2022-07-30T02:07:13;28.30;;;18.40;;
23586;SDS011;11971;51.148;4.104;2022-07-30T02:09:42;27.35;;;18.10;;
23586;SDS011;11971;51.148;4.104;2022-07-30T02:12:11;27.45;;;18.33;;
23586;SDS011;11971;51.148;4.104;2022-07-30T02:14:59;31.20;;;18.50;;
23586;SDS011;11971;51.148;4.104;2022-07-30T02:17:31;31.48;;;18.75;;
23586;SDS011;11971;51.148;4.104;2022-07-30T02:20:03;29.30;;;19.10;;
23586;SDS011;11971;51.148;4.104;2022-07-30T02:22:31;31.00;;;18.50;;
23586;SDS011;11971;51.148;4.104;2022-07-30T02:24:59;31.98;;;20.02;;
23586;SDS011;11971;51.148;4.104;2022-07-30T02:27:27;33.85;;;20.63;;
23586;SDS011;11971;51.148;4.104;2022-07-30T02:29:56;34.58;;;20.73;;
23586;SDS011;11971;51.148;4.104;2022-07-30T02:32:25;35.65;;;21.88;;
23586;SDS011;11971;51.148;4.104;2022-07-30T02:34:55;37.78;;;21.13;;
23586;SDS011;11971;51.148;4.104;2022-07-30T02:37:23;37.72;;;21.65;;
23586;SDS011;11971;51.148;4.104;2022-07-30T02:39:52;35.53;;;21.75;;
23586;SDS011;11971;51.148;4.104;2022-07-30T02:42:21;33.58;;;21.38;;
23586;SDS011;11971;51.148;4.104;2022-07-30T02:44:48;34.55;;;21.35;;
23586;SDS011;11971;51.148;4.104;2022-07-30T02:47:18;34.15;;;22.13;;
23586;SDS011;11971;51.148;4.104;2022-07-30T02:49:48;37.53;;;22.38;;
23586;SDS011;11971;51.148;4.104;2022-07-30T02:52:16;31.48;;;21.23;;
23586;SDS011;11971;51.148;4.104;2022-07-30T02:54:44;32.15;;;20.75;;
23586;SDS011;11971;51.148;4.104;2022-07-30T02:57:12;32.65;;;20.98;;
23586;SDS011;11971;51.148;4.104;2022-07-30T02:59:40;37.38;;;21.92;;
23586;SDS011;11971;51.148;4.104;2022-07-30T03:02:12;35.13;;;21.92;;
23586;SDS011;11971;51.148;4.104;2022-07-30T03:04:39;31.63;;;20.60;;
23586;SDS011;11971;51.148;4.104;2022-07-30T03:07:07;31.00;;;20.02;;
23586;SDS011;11971;51.148;4.104;2022-07-30T03:09:36;32.10;;;18.75;;
23586;SDS011;11971;51.148;4.104;2022-07-30T03:12:05;37.78;;;19.20;;
23586;SDS011;11971;51.148;4.104;2022-07-30T03:14:33;30.83;;;20.00;;
23586;SDS011;11971;51.148;4.104;2022-07-30T03:17:01;36.22;;;16.67;;
23586;SDS011;11971;51.148;4.104;2022-07-30T03:19:29;32.58;;;21.08;;
23586;SDS011;11971;51.148;4.104;2022-07-30T03:21:59;18.42;;;15.00;;
23586;SDS011;11971;51.148;4.104;2022-07-30T03:24:27;23.90;;;17.07;;
23586;SDS011;11971;51.148;4.104;2022-07-30T03:26:56;25.63;;;17.65;;
23586;SDS011;11971;51.148;4.104;2022-07-30T03:29:24;28.52;;;18.60;;
23586;SDS011;11971;51.148;4.104;2022-07-30T03:31:52;28.13;;;18.73;;
23586;SDS011;11971;51.148;4.104;2022-07-30T03:34:20;33.30;;;19.67;;
23586;SDS011;11971;51.148;4.104;2022-07-30T03:36:49;35.55;;;20.00;;
23586;SDS011;11971;51.148;4.104;2022-07-30T03:39:16;31.20;;;19.98;;
23586;SDS011;11971;51.148;4.104;2022-07-30T03:41:44;33.17;;;20.45;;
23586;SDS011;11971;51.148;4.104;2022-07-30T03:44:13;37.50;;;21.75;;
23586;SDS011;11971;51.148;4.104;2022-07-30T03:46:41;42.60;;;23.45;;
23586;SDS011;11971;51.148;4.104;2022-07-30T03:49:09;33.03;;;20.75;;
23586;SDS011;11971;51.148;4.104;2022-07-30T03:51:36;36.00;;;20.65;;
23586;SDS011;11971;51.148;4.104;2022-07-30T03:54:04;31.60;;;19.23;;
23586;SDS011;11971;51.148;4.104;2022-07-30T03:56:33;33.88;;;22.45;;
23586;SDS011;11971;51.148;4.104;2022-07-30T03:59:01;34.35;;;20.85;;
23586;SDS011;11971;51.148;4.104;2022-07-30T04:01:30;32.50;;;21.33;;
23586;SDS011;11971;51.148;4.104;2022-07-30T04:04:02;32.72;;;21.55;;
23586;SDS011;11971;51.148;4.104;2022-07-30T04:06:30;28.02;;;18.85;;
23586;SDS011;11971;51.148;4.104;2022-07-30T04:08:57;38.78;;;20.77;;
23586;SDS011;11971;51.148;4.104;2022-07-30T04:11:24;33.78;;;21.35;;
23586;SDS011;11971;51.148;4.104;2022-07-30T04:13:52;37.10;;;21.40;;
23586;SDS011;11971;51.148;4.104;2022-07-30T04:16:22;35.63;;;21.67;;
23586;SDS011;11971;51.148;4.104;2022-07-30T04:18:52;34.67;;;22.27;;
23586;SDS011;11971;51.148;4.104;2022-07-30T04:21:21;34.38;;;21.38;;
23586;SDS011;11971;51.148;4.104;2022-07-30T04:23:49;28.63;;;20.03;;
23586;SDS011;11971;51.148;4.104;2022-07-30T04:26:19;31.17;;;20.23;;
23586;SDS011;11971;51.148;4.104;2022-07-30T04:28:46;33.83;;;21.58;;
23586;SDS011;11971;51.148;4.104;2022-07-30T04:31:14;31.27;;;20.58;;
23586;SDS011;11971;51.148;4.104;2022-07-30T04:33:43;32.10;;;19.52;;
23586;SDS011;11971;51.148;4.104;2022-07-30T04:36:12;24.83;;;18.05;;
23586;SDS011;11971;51.148;4.104;2022-07-30T04:38:40;28.33;;;19.73;;
23586;SDS011;11971;51.148;4.104;2022-07-30T04:41:07;35.20;;;20.38;;
23586;SDS011;11971;51.148;4.104;2022-07-30T04:43:34;26.92;;;20.02;;
23586;SDS011;11971;51.148;4.104;2022-07-30T04:46:01;32.28;;;19.08;;
23586;SDS011;11971;51.148;4.104;2022-07-30T04:48:29;25.55;;;17.60;;
23586;SDS011;11971;51.148;4.104;2022-07-30T04:50:58;27.33;;;17.88;;
23586;SDS011;11971;51.148;4.104;2022-07-30T04:53:28;31.08;;;17.60;;
23586;SDS011;11971;51.148;4.104;2022-07-30T04:55:55;24.73;;;16.83;;
23586;SDS011;11971;51.148;4.104;2022-07-30T05:00:52;29.30;;;18.52;;
23586;SDS011;11971;51.148;4.104;2022-07-30T05:03:20;26.10;;;18.10;;
23586;SDS011;11971;51.148;4.104;2022-07-30T05:05:49;27.63;;;19.23;;
23586;SDS011;11971;51.148;4.104;2022-07-30T05:08:17;27.55;;;18.67;;
23586;SDS011;11971;51.148;4.104;2022-07-30T05:10:46;28.95;;;19.00;;
23586;SDS011;11971;51.148;4.104;2022-07-30T05:13:13;26.90;;;20.27;;
23586;SDS011;11971;51.148;4.104;2022-07-30T05:15:40;31.27;;;20.00;;
23586;SDS011;11971;51.148;4.104;2022-07-30T05:18:12;27.17;;;19.40;;
23586;SDS011;11971;51.148;4.104;2022-07-30T05:20:40;29.80;;;19.80;;
23586;SDS011;11971;51.148;4.104;2022-07-30T05:23:07;31.02;;;19.67;;
23586;SDS011;11971;51.148;4.104;2022-07-30T05:25:34;28.65;;;19.38;;
23586;SDS011;11971;51.148;4.104;2022-07-30T05:28:03;31.08;;;20.40;;
23586;SDS011;11971;51.148;4.104;2022-07-30T05:30:30;27.90;;;20.58;;
23586;SDS011;11971;51.148;4.104;2022-07-30T05:32:58;28.63;;;20.30;;
23586;SDS011;11971;51.148;4.104;2022-07-30T05:35:25;31.35;;;19.88;;
23586;SDS011;11971;51.148;4.104;2022-07-30T05:37:52;30.40;;;19.60;;
23586;SDS011;11971;51.148;4.104;2022-07-30T05:40:19;32.42;;;20.27;;
23586;SDS011;11971;51.148;4.104;2022-07-30T05:42:47;30.48;;;19.65;;
23586;SDS011;11971;51.148;4.104;2022-07-30T05:47:58;28.25;;;19.48;;
23586;SDS011;11971;51.148;4.104;2022-07-30T05:50:25;30.15;;;20.67;;
23586;SDS011;11971;51.148;4.104;2022-07-30T05:52:53;31.38;;;20.33;;
23586;SDS011;11971;51.148;4.104;2022-07-30T05:55:22;32.85;;;20.55;;
23586;SDS011;11971;51.148;4.104;2022-07-30T05:57:49;35.42;;;21.38;;
23586;SDS011;11971;51.148;4.104;2022-07-30T06:00:17;33.60;;;21.25;;
23586;SDS011;11971;51.148;4.104;2022-07-30T06:02:54;30.77;;;20.95;;
23586;SDS011;11971;51.148;4.104;2022-07-30T06:05:22;32.28;;;20.13;;
23586;SDS011;11971;51.148;4.104;2022-07-30T06:07:50;33.33;;;20.75;;
23586;SDS011;11971;51.148;4.104;2022-07-30T06:10:17;33.17;;;20.10;;
23586;SDS011;11971;51.148;4.104;2022-07-30T06:12:44;33.38;;;21.25;;
23586;SDS011;11971;51.148;4.104;2022-07-30T06:15:12;27.85;;;20.63;;
23586;SDS011;11971;51.148;4.104;2022-07-30T06:17:40;29.50;;;20.20;;
23586;SDS011;11971;51.148;4.104;2022-07-30T06:20:08;30.00;;;20.58;;
23586;SDS011;11971;51.148;4.104;2022-07-30T06:22:37;29.20;;;19.55;;
23586;SDS011;11971;51.148;4.104;2022-07-30T06:25:04;29.77;;;17.85;;
23586;SDS011;11971;51.148;4.104;2022-07-30T06:27:32;26.98;;;19.95;;
23586;SDS011;11971;51.148;4.104;2022-07-30T06:30:00;28.15;;;18.38;;
23586;SDS011;11971;51.148;4.104;2022-07-30T06:32:27;29.70;;;19.65;;
23586;SDS011;11971;51.148;4.104;2022-07-30T06:34:55;28.52;;;19.20;;
23586;SDS011;11971;51.148;4.104;2022-07-30T06:37:22;31.35;;;18.38;;
23586;SDS011;11971;51.148;4.104;2022-07-30T06:39:51;32.10;;;19.67;;
23586;SDS011;11971;51.148;4.104;2022-07-30T06:42:18;28.27;;;19.40;;
23586;SDS011;11971;51.148;4.104;2022-07-30T06:44:45;26.25;;;18.05;;
23586;SDS011;11971;51.148;4.104;2022-07-30T06:47:13;25.38;;;17.45;;
23586;SDS011;11971;51.148;4.104;2022-07-30T06:49:45;26.05;;;15.95;;
23586;SDS011;11971;51.148;4.104;2022-07-30T06:52:12;30.02;;;18.00;;
23586;SDS011;11971;51.148;4.104;2022-07-30T06:54:39;24.45;;;16.60;;
23586;SDS011;11971;51.148;4.104;2022-07-30T06:57:08;22.85;;;14.50;;
23586;SDS011;11971;51.148;4.104;2022-07-30T06:59:35;22.67;;;15.13;;
23586;SDS011;11971;51.148;4.104;2022-07-30T07:02:03;20.98;;;13.77;;
23586;SDS011;11971;51.148;4.104;2022-07-30T07:04:30;18.13;;;8.98;;
23586;SDS011;11971;51.148;4.104;2022-07-30T07:06:57;19.90;;;12.23;;
23586;SDS011;11971;51.148;4.104;2022-07-30T07:09:25;18.65;;;12.43;;
23586;SDS011;11971;51.148;4.104;2022-07-30T07:11:55;21.65;;;13.75;;
23586;SDS011;11971;51.148;4.104;2022-07-30T07:14:24;18.42;;;12.07;;
23586;SDS011;11971;51.148;4.104;2022-07-30T07:16:51;16.73;;;10.32;;
23586;SDS011;11971;51.148;4.104;2022-07-30T07:19:19;12.88;;;10.35;;
23586;SDS011;11971;51.148;4.104;2022-07-30T07:21:46;15.27;;;10.90;;
23586;SDS011;11971;51.148;4.104;2022-07-30T07:24:13;19.48;;;10.98;;
23586;SDS011;11971;51.148;4.104;2022-07-30T07:26:40;14.48;;;11.15;;
23586;SDS011;11971;51.148;4.104;2022-07-30T07:29:08;20.38;;;11.30;;
23586;SDS011;11971;51.148;4.104;2022-07-30T07:31:44;15.27;;;10.00;;
23586;SDS011;11971;51.148;4.104;2022-07-30T07:34:11;14.05;;;8.45;;
23586;SDS011;11971;51.148;4.104;2022-07-30T07:36:39;9.88;;;7.15;;
23586;SDS011;11971;51.148;4.104;2022-07-30T07:39:06;12.77;;;6.97;;
23586;SDS011;11971;51.148;4.104;2022-07-30T07:41:35;10.68;;;6.47;;
23586;SDS011;11971;51.148;4.104;2022-07-30T07:44:02;11.60;;;6.15;;
23586;SDS011;11971;51.148;4.104;2022-07-30T07:46:30;9.50;;;6.63;;
23586;SDS011;11971;51.148;4.104;2022-07-30T07:48:58;6.20;;;4.50;;
23586;SDS011;11971;51.148;4.104;2022-07-30T07:51:26;10.48;;;4.82;;
23586;SDS011;11971;51.148;4.104;2022-07-30T07:53:53;8.07;;;4.80;;
23586;SDS011;11971;51.148;4.104;2022-07-30T07:56:20;6.45;;;5.00;;
23586;SDS011;11971;51.148;4.104;2022-07-30T07:58:48;10.73;;;5.18;;
23586;SDS011;11971;51.148;4.104;2022-07-30T08:01:18;10.18;;;6.15;;
23586;SDS011;11971;51.148;4.104;2022-07-30T08:03:45;11.68;;;5.53;;
23586;SDS011;11971;51.148;4.104;2022-07-30T08:06:14;9.82;;;4.78;;
23586;SDS011;11971;51.148;4.104;2022-07-30T08:08:41;6.88;;;3.72;;
23586;SDS011;11971;51.148;4.104;2022-07-30T08:11:09;10.52;;;4.90;;
23586;SDS011;11971;51.148;4.104;2022-07-30T08:13:36;9.85;;;4.97;;
23586;SDS011;11971;51.148;4.104;2022-07-30T08:16:04;9.98;;;5.25;;
23586;SDS011;11971;51.148;4.104;2022-07-30T08:18:34;10.93;;;5.30;;
23586;SDS011;11971;51.148;4.104;2022-07-30T08:21:01;9.43;;;5.43;;
23586;SDS011;11971;51.148;4.104;2022-07-30T08:23:30;7.50;;;3.80;;
23586;SDS011;11971;51.148;4.104;2022-07-30T08:25:58;8.73;;;4.10;;
23586;SDS011;11971;51.148;4.104;2022-07-30T08:28:26;8.30;;;3.75;;
23586;SDS011;11971;51.148;4.104;2022-07-30T08:30:53;6.53;;;3.22;;
23586;SDS011;11971;51.148;4.104;2022-07-30T08:33:21;8.25;;;4.00;;
23586;SDS011;11971;51.148;4.104;2022-07-30T08:35:48;5.63;;;2.78;;
23586;SDS011;11971;51.148;4.104;2022-07-30T08:38:15;6.10;;;2.80;;
23586;SDS011;11971;51.148;4.104;2022-07-30T08:40:44;8.20;;;2.67;;
23586;SDS011;11971;51.148;4.104;2022-07-30T08:45:38;6.28;;;2.47;;
23586;SDS011;11971;51.148;4.104;2022-07-30T08:48:07;5.30;;;2.53;;
23586;SDS011;11971;51.148;4.104;2022-07-30T08:50:34;5.55;;;2.42;;
23586;SDS011;11971;51.148;4.104;2022-07-30T08:53:02;3.75;;;2.08;;
23586;SDS011;11971;51.148;4.104;2022-07-30T08:55:29;8.52;;;1.80;;
23586;SDS011;11971;51.148;4.104;2022-07-30T08:57:58;4.43;;;2.00;;
23586;SDS011;11971;51.148;4.104;2022-07-30T09:00:25;3.35;;;1.90;;
23586;SDS011;11971;51.148;4.104;2022-07-30T09:02:52;2.58;;;1.80;;
23586;SDS011;11971;51.148;4.104;2022-07-30T09:05:21;2.58;;;1.88;;
23586;SDS011;11971;51.148;4.104;2022-07-30T09:07:48;6.53;;;2.60;;
23586;SDS011;11971;51.148;4.104;2022-07-30T09:10:15;3.72;;;2.35;;
23586;SDS011;11971;51.148;4.104;2022-07-30T09:12:44;5.50;;;2.13;;
23586;SDS011;11971;51.148;4.104;2022-07-30T09:15:13;7.43;;;2.47;;
23586;SDS011;11971;51.148;4.104;2022-07-30T09:17:48;4.78;;;2.20;;
23586;SDS011;11971;51.148;4.104;2022-07-30T09:20:16;7.53;;;2.22;;
23586;SDS011;11971;51.148;4.104;2022-07-30T09:22:46;7.88;;;1.98;;
23586;SDS011;11971;51.148;4.104;2022-07-30T09:25:13;5.47;;;2.22;;
23586;SDS011;11971;51.148;4.104;2022-07-30T09:27:48;5.63;;;2.00;;
23586;SDS011;11971;51.148;4.104;2022-07-30T09:30:17;4.10;;;2.33;;
23586;SDS011;11971;51.148;4.104;2022-07-30T09:32:48;6.18;;;2.30;;
23586;SDS011;11971;51.148;4.104;2022-07-30T09:35:15;3.63;;;1.92;;
23586;SDS011;11971;51.148;4.104;2022-07-30T09:37:43;4.97;;;2.10;;
23586;SDS011;11971;51.148;4.104;2022-07-30T09:40:12;5.43;;;1.92;;
23586;SDS011;11971;51.148;4.104;2022-07-30T09:42:39;3.05;;;2.00;;
23586;SDS011;11971;51.148;4.104;2022-07-30T09:45:07;3.55;;;2.40;;
23586;SDS011;11971;51.148;4.104;2022-07-30T09:47:37;5.97;;;2.70;;
23586;SDS011;11971;51.148;4.104;2022-07-30T09:50:05;7.07;;;3.53;;
23586;SDS011;11971;51.148;4.104;2022-07-30T09:52:33;5.82;;;2.92;;
23586;SDS011;11971;51.148;4.104;2022-07-30T09:55:00;5.38;;;2.97;;
23586;SDS011;11971;51.148;4.104;2022-07-30T09:57:28;4.60;;;2.92;;
23586;SDS011;11971;51.148;4.104;2022-07-30T09:59:55;5.28;;;2.65;;
23586;SDS011;11971;51.148;4.104;2022-07-30T10:02:27;6.13;;;3.05;;
23586;SDS011;11971;51.148;4.104;2022-07-30T10:05:07;9.68;;;3.67;;
23586;SDS011;11971;51.148;4.104;2022-07-30T10:07:35;6.95;;;3.30;;
23586;SDS011;11971;51.148;4.104;2022-07-30T10:10:03;7.40;;;3.85;;
23586;SDS011;11971;51.148;4.104;2022-07-30T10:12:30;10.70;;;4.07;;
23586;SDS011;11971;51.148;4.104;2022-07-30T10:14:59;7.57;;;5.05;;
23586;SDS011;11971;51.148;4.104;2022-07-30T10:17:27;9.63;;;5.50;;
23586;SDS011;11971;51.148;4.104;2022-07-30T10:19:58;8.23;;;5.05;;
23586;SDS011;11971;51.148;4.104;2022-07-30T10:22:27;9.38;;;5.18;;
23586;SDS011;11971;51.148;4.104;2022-07-30T10:24:54;10.35;;;5.00;;
23586;SDS011;11971;51.148;4.104;2022-07-30T10:27:22;10.30;;;5.35;;
23586;SDS011;11971;51.148;4.104;2022-07-30T10:29:49;8.70;;;4.43;;
23586;SDS011;11971;51.148;4.104;2022-07-30T10:32:16;8.63;;;4.82;;
23586;SDS011;11971;51.148;4.104;2022-07-30T10:34:44;9.60;;;5.00;;
23586;SDS011;11971;51.148;4.104;2022-07-30T10:37:11;7.03;;;4.60;;
23586;SDS011;11971;51.148;4.104;2022-07-30T10:39:44;8.95;;;4.10;;
23586;SDS011;11971;51.148;4.104;2022-07-30T10:42:15;9.27;;;4.00;;
23586;SDS011;11971;51.148;4.104;2022-07-30T10:44:52;10.60;;;4.57;;
23586;SDS011;11971;51.148;4.104;2022-07-30T10:47:21;6.95;;;3.80;;
23586;SDS011;11971;51.148;4.104;2022-07-30T10:50:08;8.67;;;4.60;;
23586;SDS011;11971;51.148;4.104;2022-07-30T10:52:48;8.67;;;4.57;;
23586;SDS011;11971;51.148;4.104;2022-07-30T10:55:17;9.93;;;3.10;;
23586;SDS011;11971;51.148;4.104;2022-07-30T10:57:59;6.57;;;3.50;;
23586;SDS011;11971;51.148;4.104;2022-07-30T11:00:26;6.45;;;3.38;;
23586;SDS011;11971;51.148;4.104;2022-07-30T11:03:13;8.00;;;4.47;;
23586;SDS011;11971;51.148;4.104;2022-07-30T11:05:41;9.90;;;4.43;;
23586;SDS011;11971;51.148;4.104;2022-07-30T11:10:59;11.02;;;4.80;;
23586;SDS011;11971;51.148;4.104;2022-07-30T11:16:12;6.55;;;4.03;;
23586;SDS011;11971;51.148;4.104;2022-07-30T11:21:23;8.38;;;4.25;;
23586;SDS011;11971;51.148;4.104;2022-07-30T11:23:50;7.47;;;4.50;;
23586;SDS011;11971;51.148;4.104;2022-07-30T11:29:09;6.43;;;3.55;;
23586;SDS011;11971;51.148;4.104;2022-07-30T11:34:24;8.40;;;3.80;;
23586;SDS011;11971;51.148;4.104;2022-07-30T11:37:08;6.35;;;3.47;;
23586;SDS011;11971;51.148;4.104;2022-07-30T11:42:25;6.78;;;3.30;;
23586;SDS011;11971;51.148;4.104;2022-07-30T11:44:53;5.43;;;2.95;;
23586;SDS011;11971;51.148;4.104;2022-07-30T11:47:41;6.32;;;2.75;;
23586;SDS011;11971;51.148;4.104;2022-07-30T11:50:15;5.82;;;2.83;;
23586;SDS011;11971;51.148;4.104;2022-07-30T11:52:42;7.38;;;2.58;;
23586;SDS011;11971;51.148;4.104;2022-07-30T11:55:10;6.05;;;3.00;;
23586;SDS011;11971;51.148;4.104;2022-07-30T11:57:40;6.03;;;2.60;;
23586;SDS011;11971;51.148;4.104;2022-07-30T12:00:10;6.03;;;2.63;;
23586;SDS011;11971;51.148;4.104;2022-07-30T12:02:37;4.03;;;2.95;;
23586;SDS011;11971;51.148;4.104;2022-07-30T12:05:05;5.95;;;2.70;;
23586;SDS011;11971;51.148;4.104;2022-07-30T12:07:32;7.35;;;2.53;;
23586;SDS011;11971;51.148;4.104;2022-07-30T12:10:12;4.75;;;2.65;;
23586;SDS011;11971;51.148;4.104;2022-07-30T12:12:39;6.82;;;2.55;;
23586;SDS011;11971;51.148;4.104;2022-07-30T12:15:07;6.68;;;2.70;;
23586;SDS011;11971;51.148;4.104;2022-07-30T12:17:45;7.60;;;3.17;;
23586;SDS011;11971;51.148;4.104;2022-07-30T12:20:15;9.53;;;2.60;;
23586;SDS011;11971;51.148;4.104;2022-07-30T12:22:48;5.45;;;2.38;;
23586;SDS011;11971;51.148;4.104;2022-07-30T12:25:21;9.80;;;2.85;;
23586;SDS011;11971;51.148;4.104;2022-07-30T12:27:49;6.68;;;3.28;;
23586;SDS011;11971;51.148;4.104;2022-07-30T12:30:16;9.60;;;3.05;;
23586;SDS011;11971;51.148;4.104;2022-07-30T12:32:47;6.40;;;2.63;;
23586;SDS011;11971;51.148;4.104;2022-07-30T12:35:18;5.20;;;2.90;;
23586;SDS011;11971;51.148;4.104;2022-07-30T12:38:00;7.38;;;3.10;;
23586;SDS011;11971;51.148;4.104;2022-07-30T12:40:29;3.50;;;2.28;;
23586;SDS011;11971;51.148;4.104;2022-07-30T12:42:56;9.82;;;2.42;;
23586;SDS011;11971;51.148;4.104;2022-07-30T12:45:27;6.53;;;2.33;;
23586;SDS011;11971;51.148;4.104;2022-07-30T12:47:57;7.72;;;2.30;;
23586;SDS011;11971;51.148;4.104;2022-07-30T12:50:39;7.43;;;2.38;;
23586;SDS011;11971;51.148;4.104;2022-07-30T12:53:11;8.15;;;2.47;;
23586;SDS011;11971;51.148;4.104;2022-07-30T12:55:39;4.18;;;2.10;;
23586;SDS011;11971;51.148;4.104;2022-07-30T12:58:08;3.90;;;2.08;;
23586;SDS011;11971;51.148;4.104;2022-07-30T13:00:44;4.95;;;2.20;;
23586;SDS011;11971;51.148;4.104;2022-07-30T13:03:19;7.82;;;2.00;;
23586;SDS011;11971;51.148;4.104;2022-07-30T13:05:48;5.20;;;2.05;;
23586;SDS011;11971;51.148;4.104;2022-07-30T13:08:15;3.35;;;1.88;;
23586;SDS011;11971;51.148;4.104;2022-07-30T13:10:52;7.47;;;2.10;;
23586;SDS011;11971;51.148;4.104;2022-07-30T13:13:20;7.45;;;2.20;;
23586;SDS011;11971;51.148;4.104;2022-07-30T13:15:55;7.18;;;1.83;;
23586;SDS011;11971;51.148;4.104;2022-07-30T13:18:24;6.90;;;1.95;;
23586;SDS011;11971;51.148;4.104;2022-07-30T13:23:20;5.95;;;2.03;;
23586;SDS011;11971;51.148;4.104;2022-07-30T13:25:47;3.90;;;1.90;;
23586;SDS011;11971;51.148;4.104;2022-07-30T13:28:14;5.63;;;1.90;;
23586;SDS011;11971;51.148;4.104;2022-07-30T13:30:42;6.07;;;1.92;;
23586;SDS011;11971;51.148;4.104;2022-07-30T13:33:09;9.65;;;1.70;;
23586;SDS011;11971;51.148;4.104;2022-07-30T13:35:38;3.75;;;1.70;;
23586;SDS011;11971;51.148;4.104;2022-07-30T13:38:05;3.13;;;1.73;;
23586;SDS011;11971;51.148;4.104;2022-07-30T13:40:33;3.63;;;1.88;;
23586;SDS011;11971;51.148;4.104;2022-07-30T13:43:01;7.18;;;1.77;;
23586;SDS011;11971;51.148;4.104;2022-07-30T13:45:28;5.10;;;1.67;;
23586;SDS011;11971;51.148;4.104;2022-07-30T13:47:55;3.03;;;1.50;;
23586;SDS011;11971;51.148;4.104;2022-07-30T13:50:23;4.30;;;1.70;;
23586;SDS011;11971;51.148;4.104;2022-07-30T13:52:52;3.92;;;1.75;;
23586;SDS011;11971;51.148;4.104;2022-07-30T13:55:19;4.20;;;1.80;;
23586;SDS011;11971;51.148;4.104;2022-07-30T13:57:46;3.45;;;1.50;;
23586;SDS011;11971;51.148;4.104;2022-07-30T14:00:14;4.82;;;1.70;;
23586;SDS011;11971;51.148;4.104;2022-07-30T14:02:41;2.50;;;1.73;;
23586;SDS011;11971;51.148;4.104;2022-07-30T14:05:10;2.88;;;1.67;;
23586;SDS011;11971;51.148;4.104;2022-07-30T14:07:40;3.33;;;1.60;;
23586;SDS011;11971;51.148;4.104;2022-07-30T14:10:21;2.97;;;1.55;;
23586;SDS011;11971;51.148;4.104;2022-07-30T14:12:49;6.70;;;1.83;;
23586;SDS011;11971;51.148;4.104;2022-07-30T14:15:19;6.18;;;1.50;;
23586;SDS011;11971;51.148;4.104;2022-07-30T14:20:25;3.83;;;1.80;;
23586;SDS011;11971;51.148;4.104;2022-07-30T14:22:52;2.27;;;1.40;;
23586;SDS011;11971;51.148;4.104;2022-07-30T14:25:22;3.60;;;1.50;;
23586;SDS011;11971;51.148;4.104;2022-07-30T14:27:49;4.43;;;1.70;;
23586;SDS011;11971;51.148;4.104;2022-07-30T14:30:16;3.80;;;1.80;;
23586;SDS011;11971;51.148;4.104;2022-07-30T14:32:44;3.28;;;1.55;;
23586;SDS011;11971;51.148;4.104;2022-07-30T14:35:11;4.57;;;1.45;;
23586;SDS011;11971;51.148;4.104;2022-07-30T14:37:39;4.68;;;1.70;;
23586;SDS011;11971;51.148;4.104;2022-07-30T14:40:08;4.03;;;1.80;;
23586;SDS011;11971;51.148;4.104;2022-07-30T14:42:37;2.88;;;1.60;;
23586;SDS011;11971;51.148;4.104;2022-07-30T14:45:06;3.28;;;1.65;;
23586;SDS011;11971;51.148;4.104;2022-07-30T14:47:33;6.50;;;1.88;;
23586;SDS011;11971;51.148;4.104;2022-07-30T14:50:04;4.75;;;1.80;;
23586;SDS011;11971;51.148;4.104;2022-07-30T14:52:31;3.85;;;1.75;;
23586;SDS011;11971;51.148;4.104;2022-07-30T14:54:59;4.70;;;1.50;;
23586;SDS011;11971;51.148;4.104;2022-07-30T14:57:27;4.43;;;1.60;;
23586;SDS011;11971;51.148;4.104;2022-07-30T14:59:55;2.30;;;1.30;;
23586;SDS011;11971;51.148;4.104;2022-07-30T15:02:24;3.45;;;1.60;;
23586;SDS011;11971;51.148;4.104;2022-07-30T15:07:19;2.60;;;1.67;;
23586;SDS011;11971;51.148;4.104;2022-07-30T15:09:46;3.92;;;1.60;;
23586;SDS011;11971;51.148;4.104;2022-07-30T15:12:13;4.85;;;1.70;;
23586;SDS011;11971;51.148;4.104;2022-07-30T15:14:41;9.85;;;1.70;;
23586;SDS011;11971;51.148;4.104;2022-07-30T15:17:14;5.40;;;1.70;;
23586;SDS011;11971;51.148;4.104;2022-07-30T15:19:42;5.43;;;1.70;;
23586;SDS011;11971;51.148;4.104;2022-07-30T15:22:09;6.50;;;2.08;;